sensor_id;sensor_type;location;lat;lon;timestamp;P1;P2;P0
81108;PMS5003;70589;51.826;5.860;2023-06-10T00:04:59;27;26;
81108;PMS5003;70589;51.826;5.860;2023-06-10T00:09:59;21;21;
81108;PMS5003;70589;51.826;5.860;2023-06-10T00:14:59;20;20;
81108;PMS5003;70589;51.826;5.860;2023-06-10T00:19:59;26;26;
81108;PMS5003;70589;51.826;5.860;2023-06-10T00:24:59;25;24;
81108;PMS5003;70589;51.826;5.860;2023-06-10T00:29:59;25;25;
81108;PMS5003;70589;51.826;5.860;2023-06-10T00:34:59;28;28;
81108;PMS5003;70589;51.826;5.860;2023-06-10T00:39:59;22;21;
81108;PMS5003;70589;51.826;5.860;2023-06-10T00:44:59;23;23;
81108;PMS5003;70589;51.826;5.860;2023-06-10T00:49:59;24;22;
81108;PMS5003;70589;51.826;5.860;2023-06-10T00:54:59;21;21;
81108;PMS5003;70589;51.826;5.860;2023-06-10T06:50:59;17;17;
81108;PMS5003;70589;51.826;5.860;2023-06-10T06:53:25;18;18;
81108;PMS5003;70589;51.826;5.860;2023-06-10T06:55:51;18;18;
81108;PMS5003;70589;51.826;5.860;2023-06-10T12:18:29;18;16;
81108;PMS5003;70589;51.826;5.860;2023-06-10T12:20:54;11;11;
81108;PMS5003;70589;51.826;5.860;2023-06-10T12:23:20;14;12;
81108;PMS5003;70589;51.826;5.860;2023-06-10T12:25:51;13;13;
81108;PMS5003;70589;51.826;5.860;2023-06-10T12:28:11;12;12;
81108;PMS5003;70589;51.826;5.860;2023-06-10T12:30:36;12;11;
81108;PMS5003;70589;51.826;5.860;2023-06-10T12:33:02;11;11;
81108;PMS5003;70589;51.826;5.860;2023-06-10T12:35:27;12;12;
81108;PMS5003;70589;51.826;5.860;2023-06-10T12:37:54;11;11;
81108;PMS5003;70589;51.826;5.860;2023-06-10T12:40:18;10;10;
81108;PMS5003;70589;51.826;5.860;2023-06-10T12:42:44;14;14;
81108;PMS5003;70589;51.826;5.860;2023-06-10T12:45:10;12;12;
81108;PMS5003;70589;51.826;5.860;2023-06-10T12:47:36;14;13;
81108;PMS5003;70589;51.826;5.860;2023-06-10T12:50:01;13;13;
81108;PMS5003;70589;51.826;5.860;2023-06-10T12:52:26;11;11;
81108;PMS5003;70589;51.826;5.860;2023-06-10T12:54:52;14;14;
81108;PMS5003;70589;51.826;5.860;2023-06-10T12:57:17;13;13;
81108;PMS5003;70589;51.826;5.860;2023-06-10T12:59:43;16;15;
81108;PMS5003;70589;51.826;5.860;2023-06-10T13:02:09;13;13;
81108;PMS5003;70589;51.826;5.860;2023-06-10T13:04:34;15;15;
81108;PMS5003;70589;51.826;5.860;2023-06-10T13:07:00;13;13;
81108;PMS5003;70589;51.826;5.860;2023-06-10T13:09:25;11;11;
81108;PMS5003;70589;51.826;5.860;2023-06-10T13:11:51;12;12;
81108;PMS5003;70589;51.826;5.860;2023-06-10T13:14:17;16;14;
81108;PMS5003;70589;51.826;5.860;2023-06-10T13:16:42;14;14;
81108;PMS5003;70589;51.826;5.860;2023-06-10T13:19:08;13;13;
81108;PMS5003;70589;51.826;5.860;2023-06-10T13:21:33;13;13;
81108;PMS5003;70589;51.826;5.860;2023-06-10T13:23:59;13;11;
81108;PMS5003;70589;51.826;5.860;2023-06-10T13:26:24;15;14;
81108;PMS5003;70589;51.826;5.860;2023-06-10T13:28:50;16;15;
81108;PMS5003;70589;51.826;5.860;2023-06-10T13:31:16;15;14;
81108;PMS5003;70589;51.826;5.860;2023-06-10T13:33:41;14;14;
81108;PMS5003;70589;51.826;5.860;2023-06-10T13:36:07;12;12;
81108;PMS5003;70589;51.826;5.860;2023-06-10T13:38:32;11;11;
81108;PMS5003;70589;51.826;5.860;2023-06-10T13:40:58;14;14;
81108;PMS5003;70589;51.826;5.860;2023-06-10T13:43:23;12;12;
81108;PMS5003;70589;51.826;5.860;2023-06-10T13:45:49;14;14;
81108;PMS5003;70589;51.826;5.860;2023-06-10T13:48:15;14;14;
81108;PMS5003;70589;51.826;5.860;2023-06-10T13:50:40;13;13;
81108;PMS5003;70589;51.826;5.860;2023-06-10T13:53:05;14;14;
81108;PMS5003;70589;51.826;5.860;2023-06-10T13:55:31;15;15;
81108;PMS5003;70589;51.826;5.860;2023-06-10T13:57:57;14;14;
81108;PMS5003;70589;51.826;5.860;2023-06-10T14:00:22;16;15;
81108;PMS5003;70589;51.826;5.860;2023-06-10T14:02:47;16;16;
81108;PMS5003;70589;51.826;5.860;2023-06-10T14:05:13;16;16;
81108;PMS5003;70589;51.826;5.860;2023-06-10T14:07:39;14;14;
81108;PMS5003;70589;51.826;5.860;2023-06-10T14:10:04;17;15;
81108;PMS5003;70589;51.826;5.860;2023-06-10T14:12:29;14;12;
81108;PMS5003;70589;51.826;5.860;2023-06-10T14:14:55;15;15;
81108;PMS5003;70589;51.826;5.860;2023-06-10T14:17:20;15;15;
81108;PMS5003;70589;51.826;5.860;2023-06-10T14:19:45;13;13;
81108;PMS5003;70589;51.826;5.860;2023-06-10T14:22:11;13;13;
81108;PMS5003;70589;51.826;5.860;2023-06-10T14:24:37;13;12;
81108;PMS5003;70589;51.826;5.860;2023-06-10T14:27:02;12;12;
81108;PMS5003;70589;51.826;5.860;2023-06-10T14:29:28;13;12;
81108;PMS5003;70589;51.826;5.860;2023-06-10T14:31:53;12;12;
81108;PMS5003;70589;51.826;5.860;2023-06-10T14:34:18;13;12;
81108;PMS5003;70589;51.826;5.860;2023-06-10T14:36:44;12;12;
81108;PMS5003;70589;51.826;5.860;2023-06-10T14:39:10;18;16;
81108;PMS5003;70589;51.826;5.860;2023-06-10T14:41:35;12;12;
81108;PMS5003;70589;51.826;5.860;2023-06-10T14:44:00;13;13;
81108;PMS5003;70589;51.826;5.860;2023-06-10T14:46:26;16;13;
81108;PMS5003;70589;51.826;5.860;2023-06-10T14:48:52;11;11;
81108;PMS5003;70589;51.826;5.860;2023-06-10T14:51:17;12;12;
81108;PMS5003;70589;51.826;5.860;2023-06-10T14:53:43;15;15;
81108;PMS5003;70589;51.826;5.860;2023-06-10T14:56:09;14;14;
81108;PMS5003;70589;51.826;5.860;2023-06-10T14:58:35;14;12;
81108;PMS5003;70589;51.826;5.860;2023-06-10T15:01:00;14;12;
81108;PMS5003;70589;51.826;5.860;2023-06-10T15:03:25;12;12;
81108;PMS5003;70589;51.826;5.860;2023-06-10T15:05:51;14;13;
81108;PMS5003;70589;51.826;5.860;2023-06-10T15:10:42;14;14;
81108;PMS5003;70589;51.826;5.860;2023-06-10T15:13:07;12;12;
81108;PMS5003;70589;51.826;5.860;2023-06-10T15:15:33;14;14;
81108;PMS5003;70589;51.826;5.860;2023-06-10T15:17:59;15;15;
81108;PMS5003;70589;51.826;5.860;2023-06-10T15:20:24;16;16;
81108;PMS5003;70589;51.826;5.860;2023-06-10T15:22:49;16;13;
81108;PMS5003;70589;51.826;5.860;2023-06-10T15:25:15;12;12;
81108;PMS5003;70589;51.826;5.860;2023-06-10T15:27:40;13;13;
81108;PMS5003;70589;51.826;5.860;2023-06-10T15:30:06;12;12;
81108;PMS5003;70589;51.826;5.860;2023-06-10T15:32:31;12;12;
81108;PMS5003;70589;51.826;5.860;2023-06-10T15:34:57;12;12;
81108;PMS5003;70589;51.826;5.860;2023-06-10T15:37:22;14;14;
81108;PMS5003;70589;51.826;5.860;2023-06-10T15:39:48;15;14;
81108;PMS5003;70589;51.826;5.860;2023-06-10T15:42:13;12;12;
81108;PMS5003;70589;51.826;5.860;2023-06-10T15:44:39;15;15;
81108;PMS5003;70589;51.826;5.860;2023-06-10T15:47:05;12;12;
81108;PMS5003;70589;51.826;5.860;2023-06-10T15:49:30;13;11;
81108;PMS5003;70589;51.826;5.860;2023-06-10T15:52:02;14;14;
81108;PMS5003;70589;51.826;5.860;2023-06-10T15:54:21;15;14;
81108;PMS5003;70589;51.826;5.860;2023-06-10T15:56:46;17;17;
81108;PMS5003;70589;51.826;5.860;2023-06-10T15:59:12;15;13;
81108;PMS5003;70589;51.826;5.860;2023-06-10T16:01:37;14;14;
81108;PMS5003;70589;51.826;5.860;2023-06-10T16:04:03;15;15;
81108;PMS5003;70589;51.826;5.860;2023-06-10T16:06:28;16;16;
81108;PMS5003;70589;51.826;5.860;2023-06-10T16:08:54;13;13;
81108;PMS5003;70589;51.826;5.860;2023-06-10T16:11:19;14;14;
81108;PMS5003;70589;51.826;5.860;2023-06-10T16:13:45;15;14;
81108;PMS5003;70589;51.826;5.860;2023-06-10T16:16:10;16;14;
81108;PMS5003;70589;51.826;5.860;2023-06-10T16:18:36;11;11;
81108;PMS5003;70589;51.826;5.860;2023-06-10T16:21:01;15;14;
81108;PMS5003;70589;51.826;5.860;2023-06-10T16:23:27;17;15;
81108;PMS5003;70589;51.826;5.860;2023-06-10T16:25:52;15;15;
81108;PMS5003;70589;51.826;5.860;2023-06-10T16:28:17;11;11;
81108;PMS5003;70589;51.826;5.860;2023-06-10T16:30:43;14;14;
81108;PMS5003;70589;51.826;5.860;2023-06-10T16:33:09;15;15;
81108;PMS5003;70589;51.826;5.860;2023-06-10T16:35:34;12;12;
81108;PMS5003;70589;51.826;5.860;2023-06-10T16:38:00;16;16;
81108;PMS5003;70589;51.826;5.860;2023-06-10T16:40:25;15;15;
81108;PMS5003;70589;51.826;5.860;2023-06-10T16:42:51;15;15;
81108;PMS5003;70589;51.826;5.860;2023-06-10T16:45:16;17;17;
81108;PMS5003;70589;51.826;5.860;2023-06-10T16:47:42;12;12;
81108;PMS5003;70589;51.826;5.860;2023-06-10T16:50:07;16;15;
81108;PMS5003;70589;51.826;5.860;2023-06-10T16:52:33;12;12;
81108;PMS5003;70589;51.826;5.860;2023-06-10T16:54:58;16;16;
81108;PMS5003;70589;51.826;5.860;2023-06-10T16:57:24;14;14;
81108;PMS5003;70589;51.826;5.860;2023-06-10T16:59:49;16;16;
81108;PMS5003;70589;51.826;5.860;2023-06-10T17:02:15;19;18;
81108;PMS5003;70589;51.826;5.860;2023-06-10T17:04:40;15;13;
81108;PMS5003;70589;51.826;5.860;2023-06-10T17:07:06;14;14;
81108;PMS5003;70589;51.826;5.860;2023-06-10T17:09:31;12;12;
81108;PMS5003;70589;51.826;5.860;2023-06-10T17:11:57;16;16;
81108;PMS5003;70589;51.826;5.860;2023-06-10T17:14:22;14;14;
81108;PMS5003;70589;51.826;5.860;2023-06-10T17:16:47;11;11;
81108;PMS5003;70589;51.826;5.860;2023-06-10T17:41:37;11;11;
81108;PMS5003;70589;51.826;5.860;2023-06-10T17:44:03;20;20;
81108;PMS5003;70589;51.826;5.860;2023-06-10T17:46:27;12;12;
81108;PMS5003;70589;51.826;5.860;2023-06-10T17:48:53;11;10;
81108;PMS5003;70589;51.826;5.860;2023-06-10T17:51:19;11;11;
81108;PMS5003;70589;51.826;5.860;2023-06-10T17:53:44;10;10;
81108;PMS5003;70589;51.826;5.860;2023-06-10T17:56:10;12;12;
81108;PMS5003;70589;51.826;5.860;2023-06-10T17:58:36;12;12;
81108;PMS5003;70589;51.826;5.860;2023-06-10T18:01:02;9;9;
81108;PMS5003;70589;51.826;5.860;2023-06-10T18:03:27;13;12;
81108;PMS5003;70589;51.826;5.860;2023-06-10T18:05:53;16;16;
81108;PMS5003;70589;51.826;5.860;2023-06-10T18:08:19;13;13;
81108;PMS5003;70589;51.826;5.860;2023-06-10T18:10:44;11;11;
81108;PMS5003;70589;51.826;5.860;2023-06-10T18:13:10;11;11;
81108;PMS5003;70589;51.826;5.860;2023-06-10T18:15:35;14;13;
81108;PMS5003;70589;51.826;5.860;2023-06-10T18:18:01;11;11;
81108;PMS5003;70589;51.826;5.860;2023-06-10T18:20:26;12;10;
81108;PMS5003;70589;51.826;5.860;2023-06-10T18:22:52;9;9;
81108;PMS5003;70589;51.826;5.860;2023-06-10T18:25:17;14;12;
81108;PMS5003;70589;51.826;5.860;2023-06-10T18:27:43;12;10;
81108;PMS5003;70589;51.826;5.860;2023-06-10T18:30:08;10;10;
81108;PMS5003;70589;51.826;5.860;2023-06-10T18:32:34;16;13;
81108;PMS5003;70589;51.826;5.860;2023-06-10T18:35:00;12;11;
81108;PMS5003;70589;51.826;5.860;2023-06-10T18:37:25;12;12;
81108;PMS5003;70589;51.826;5.860;2023-06-10T18:39:51;12;11;
81108;PMS5003;70589;51.826;5.860;2023-06-10T18:42:17;13;10;
81108;PMS5003;70589;51.826;5.860;2023-06-10T18:44:42;12;11;
81108;PMS5003;70589;51.826;5.860;2023-06-10T18:47:11;12;12;
81108;PMS5003;70589;51.826;5.860;2023-06-10T18:49:33;11;11;
81108;PMS5003;70589;51.826;5.860;2023-06-10T18:51:59;12;12;
81108;PMS5003;70589;51.826;5.860;2023-06-10T18:54:25;11;11;
81108;PMS5003;70589;51.826;5.860;2023-06-10T18:56:51;11;11;
81108;PMS5003;70589;51.826;5.860;2023-06-10T18:59:16;10;10;
81108;PMS5003;70589;51.826;5.860;2023-06-10T19:01:42;10;10;
81108;PMS5003;70589;51.826;5.860;2023-06-10T19:04:07;11;11;
81108;PMS5003;70589;51.826;5.860;2023-06-10T19:06:33;13;11;
81108;PMS5003;70589;51.826;5.860;2023-06-10T19:08:59;12;11;
81108;PMS5003;70589;51.826;5.860;2023-06-10T19:11:24;12;12;
81108;PMS5003;70589;51.826;5.860;2023-06-10T19:13:50;8;8;
81108;PMS5003;70589;51.826;5.860;2023-06-10T19:16:16;12;12;
81108;PMS5003;70589;51.826;5.860;2023-06-10T19:18:41;14;13;
81108;PMS5003;70589;51.826;5.860;2023-06-10T19:21:07;14;14;
81108;PMS5003;70589;51.826;5.860;2023-06-10T19:23:33;14;13;
81108;PMS5003;70589;51.826;5.860;2023-06-10T19:25:58;11;8;
81108;PMS5003;70589;51.826;5.860;2023-06-10T19:28:24;10;10;
81108;PMS5003;70589;51.826;5.860;2023-06-10T19:30:50;13;13;
81108;PMS5003;70589;51.826;5.860;2023-06-10T19:33:16;11;11;
81108;PMS5003;70589;51.826;5.860;2023-06-10T19:35:41;10;10;
81108;PMS5003;70589;51.826;5.860;2023-06-10T19:38:07;11;11;
81108;PMS5003;70589;51.826;5.860;2023-06-10T19:40:33;13;12;
81108;PMS5003;70589;51.826;5.860;2023-06-10T19:42:58;11;11;
81108;PMS5003;70589;51.826;5.860;2023-06-10T19:45:24;10;8;
81108;PMS5003;70589;51.826;5.860;2023-06-10T19:47:50;16;14;
81108;PMS5003;70589;51.826;5.860;2023-06-10T19:50:15;11;11;
81108;PMS5003;70589;51.826;5.860;2023-06-10T19:52:41;12;12;
81108;PMS5003;70589;51.826;5.860;2023-06-10T19:55:07;11;10;
81108;PMS5003;70589;51.826;5.860;2023-06-10T19:57:33;11;11;
81108;PMS5003;70589;51.826;5.860;2023-06-10T19:59:58;11;11;
81108;PMS5003;70589;51.826;5.860;2023-06-10T20:02:24;13;13;
81108;PMS5003;70589;51.826;5.860;2023-06-10T20:04:50;10;10;
81108;PMS5003;70589;51.826;5.860;2023-06-10T20:07:16;13;13;
81108;PMS5003;70589;51.826;5.860;2023-06-10T20:09:42;10;10;
81108;PMS5003;70589;51.826;5.860;2023-06-10T20:12:08;11;11;
81108;PMS5003;70589;51.826;5.860;2023-06-10T20:14:33;13;11;
81108;PMS5003;70589;51.826;5.860;2023-06-10T20:16:59;14;12;
81108;PMS5003;70589;51.826;5.860;2023-06-10T20:19:25;14;14;
81108;PMS5003;70589;51.826;5.860;2023-06-10T20:21:50;13;13;
81108;PMS5003;70589;51.826;5.860;2023-06-10T20:24:16;12;10;
81108;PMS5003;70589;51.826;5.860;2023-06-10T20:26:42;15;12;
81108;PMS5003;70589;51.826;5.860;2023-06-10T20:29:08;13;13;
81108;PMS5003;70589;51.826;5.860;2023-06-10T20:31:34;11;11;
81108;PMS5003;70589;51.826;5.860;2023-06-10T20:33:59;19;16;
81108;PMS5003;70589;51.826;5.860;2023-06-10T20:36:25;11;9;
81108;PMS5003;70589;51.826;5.860;2023-06-10T20:38:50;14;13;
81108;PMS5003;70589;51.826;5.860;2023-06-10T20:41:15;18;18;
81108;PMS5003;70589;51.826;5.860;2023-06-10T20:43:41;10;10;
81108;PMS5003;70589;51.826;5.860;2023-06-10T20:46:07;12;10;
81108;PMS5003;70589;51.826;5.860;2023-06-10T20:48:32;11;11;
81108;PMS5003;70589;51.826;5.860;2023-06-10T20:50:58;16;16;
81108;PMS5003;70589;51.826;5.860;2023-06-10T20:53:23;12;12;
81108;PMS5003;70589;51.826;5.860;2023-06-10T20:55:49;16;16;
81108;PMS5003;70589;51.826;5.860;2023-06-10T20:58:14;10;10;
81108;PMS5003;70589;51.826;5.860;2023-06-10T21:00:39;15;13;
81108;PMS5003;70589;51.826;5.860;2023-06-10T21:03:04;14;13;
81108;PMS5003;70589;51.826;5.860;2023-06-10T21:05:29;15;14;
81108;PMS5003;70589;51.826;5.860;2023-06-10T21:07:55;16;14;
81108;PMS5003;70589;51.826;5.860;2023-06-10T21:10:20;18;15;
81108;PMS5003;70589;51.826;5.860;2023-06-10T21:12:45;12;12;
81108;PMS5003;70589;51.826;5.860;2023-06-10T21:15:11;15;15;
81108;PMS5003;70589;51.826;5.860;2023-06-10T21:17:36;14;13;
81108;PMS5003;70589;51.826;5.860;2023-06-10T21:20:01;11;11;
81108;PMS5003;70589;51.826;5.860;2023-06-10T21:22:26;9;9;
81108;PMS5003;70589;51.826;5.860;2023-06-10T21:24:51;15;15;
81108;PMS5003;70589;51.826;5.860;2023-06-10T21:27:17;13;13;
81108;PMS5003;70589;51.826;5.860;2023-06-10T21:29:42;14;13;
81108;PMS5003;70589;51.826;5.860;2023-06-10T21:32:07;14;14;
81108;PMS5003;70589;51.826;5.860;2023-06-10T21:34:32;14;14;
81108;PMS5003;70589;51.826;5.860;2023-06-10T21:36:58;11;11;
81108;PMS5003;70589;51.826;5.860;2023-06-10T21:39:23;12;12;
81108;PMS5003;70589;51.826;5.860;2023-06-10T21:41:48;14;14;
81108;PMS5003;70589;51.826;5.860;2023-06-10T21:44:14;12;12;
81108;PMS5003;70589;51.826;5.860;2023-06-10T21:46:39;13;13;
81108;PMS5003;70589;51.826;5.860;2023-06-10T21:49:04;16;16;
81108;PMS5003;70589;51.826;5.860;2023-06-10T21:51:29;15;15;
81108;PMS5003;70589;51.826;5.860;2023-06-10T21:53:54;10;10;
81108;PMS5003;70589;51.826;5.860;2023-06-10T21:56:20;15;15;
81108;PMS5003;70589;51.826;5.860;2023-06-10T21:58:45;17;16;
81108;PMS5003;70589;51.826;5.860;2023-06-10T22:01:10;17;15;
81108;PMS5003;70589;51.826;5.860;2023-06-10T22:03:35;14;14;
81108;PMS5003;70589;51.826;5.860;2023-06-10T22:06:00;14;14;
81108;PMS5003;70589;51.826;5.860;2023-06-10T22:08:25;14;13;
81108;PMS5003;70589;51.826;5.860;2023-06-10T22:10:51;18;15;
81108;PMS5003;70589;51.826;5.860;2023-06-10T22:13:16;14;14;
81108;PMS5003;70589;51.826;5.860;2023-06-10T22:15:42;16;16;
81108;PMS5003;70589;51.826;5.860;2023-06-10T22:18:07;14;13;
81108;PMS5003;70589;51.826;5.860;2023-06-10T22:20:32;15;15;
81108;PMS5003;70589;51.826;5.860;2023-06-10T22:22:58;18;17;
81108;PMS5003;70589;51.826;5.860;2023-06-10T22:25:23;17;17;
81108;PMS5003;70589;51.826;5.860;2023-06-10T22:27:48;12;12;
81108;PMS5003;70589;51.826;5.860;2023-06-10T22:30:13;12;11;
81108;PMS5003;70589;51.826;5.860;2023-06-10T22:32:39;11;11;
81108;PMS5003;70589;51.826;5.860;2023-06-10T22:35:04;16;15;
81108;PMS5003;70589;51.826;5.860;2023-06-10T22:37:29;15;15;
81108;PMS5003;70589;51.826;5.860;2023-06-10T22:39:55;19;19;
81108;PMS5003;70589;51.826;5.860;2023-06-10T22:42:20;15;14;
81108;PMS5003;70589;51.826;5.860;2023-06-10T22:44:45;13;13;
81108;PMS5003;70589;51.826;5.860;2023-06-10T22:47:10;16;16;
81108;PMS5003;70589;51.826;5.860;2023-06-10T22:49:36;18;16;
81108;PMS5003;70589;51.826;5.860;2023-06-10T22:52:02;13;13;
81108;PMS5003;70589;51.826;5.860;2023-06-10T22:54:27;17;17;
81108;PMS5003;70589;51.826;5.860;2023-06-10T22:56:53;16;16;
81108;PMS5003;70589;51.826;5.860;2023-06-10T22:59:18;15;15;
81108;PMS5003;70589;51.826;5.860;2023-06-10T23:01:43;13;13;
81108;PMS5003;70589;51.826;5.860;2023-06-10T23:04:08;18;16;
81108;PMS5003;70589;51.826;5.860;2023-06-10T23:06:33;15;15;
81108;PMS5003;70589;51.826;5.860;2023-06-10T23:08:59;13;13;
81108;PMS5003;70589;51.826;5.860;2023-06-10T23:11:24;24;21;
81108;PMS5003;70589;51.826;5.860;2023-06-10T23:13:49;18;18;
81108;PMS5003;70589;51.826;5.860;2023-06-10T23:16:15;17;17;
81108;PMS5003;70589;51.826;5.860;2023-06-10T23:18:40;15;15;
81108;PMS5003;70589;51.826;5.860;2023-06-10T23:21:05;17;17;
81108;PMS5003;70589;51.826;5.860;2023-06-10T23:23:31;13;13;
81108;PMS5003;70589;51.826;5.860;2023-06-10T23:25:56;14;13;
81108;PMS5003;70589;51.826;5.860;2023-06-10T23:28:21;15;15;
81108;PMS5003;70589;51.826;5.860;2023-06-10T23:30:47;18;18;
81108;PMS5003;70589;51.826;5.860;2023-06-10T23:33:12;15;15;
81108;PMS5003;70589;51.826;5.860;2023-06-10T23:35:38;16;16;
81108;PMS5003;70589;51.826;5.860;2023-06-10T23:38:03;12;12;
81108;PMS5003;70589;51.826;5.860;2023-06-10T23:40:28;15;15;
81108;PMS5003;70589;51.826;5.860;2023-06-10T23:42:54;12;12;
81108;PMS5003;70589;51.826;5.860;2023-06-10T23:45:19;15;15;
81108;PMS5003;70589;51.826;5.860;2023-06-10T23:47:44;15;14;
81108;PMS5003;70589;51.826;5.860;2023-06-10T23:50:10;18;16;
81108;PMS5003;70589;51.826;5.860;2023-06-10T23:52:35;13;13;
81108;PMS5003;70589;51.826;5.860;2023-06-10T23:55:00;12;12;
81108;PMS5003;70589;51.826;5.860;2023-06-10T23:57:25;21;20;
81108;PMS5003;70589;51.826;5.860;2023-06-10T23:59:50;17;16;
